createdAt,value
2022-12-11T00:02:30.770Z,98791.97
2022-12-11T00:12:32.414Z,98794.44
2022-12-11T00:22:34.029Z,98798.31
2022-12-11T00:32:37.737Z,98800.34
2022-12-11T00:42:39.384Z,98800.47
2022-12-11T00:52:40.925Z,98799.16
2022-12-11T01:02:42.419Z,98791.28
2022-12-11T01:12:43.919Z,98789.13
2022-12-11T01:22:45.321Z,98790.50
2022-12-11T01:32:46.804Z,98793.34
2022-12-11T01:42:48.171Z,98784.59
2022-12-11T01:52:49.539Z,98776.06
2022-12-11T02:02:50.939Z,98781.34
2022-12-11T02:12:57.616Z,98772.56
2022-12-11T02:23:17.605Z,98770.19
2022-12-11T02:33:21.700Z,98768.66
2022-12-11T02:43:23.305Z,98755.78
2022-12-11T02:53:26.498Z,98764.28
2022-12-11T03:03:28.585Z,98750.78
2022-12-11T03:13:29.969Z,98742.75
2022-12-11T03:24:03.573Z,98746.91
2022-12-11T03:34:18.538Z,98747.97
2022-12-11T03:44:20.205Z,98762.25
2022-12-11T03:54:21.590Z,98756.47
2022-12-11T04:04:23.004Z,98747.00
2022-12-11T04:14:43.195Z,98738.78
2022-12-11T04:24:44.748Z,98740.44
2022-12-11T04:34:46.200Z,98742.91
2022-12-11T04:44:47.581Z,98736.28
2022-12-11T04:54:49.018Z,98736.66
2022-12-11T05:04:50.567Z,98728.63
2022-12-11T05:14:54.959Z,98725.94
2022-12-11T05:24:58.658Z,98722.25
2022-12-11T05:35:00.035Z,98719.19
2022-12-11T05:45:01.418Z,98710.16
2022-12-11T05:55:02.836Z,98691.84
2022-12-11T06:05:04.329Z,98690.47
2022-12-11T06:15:06.103Z,98706.97
2022-12-11T06:25:07.786Z,98706.34
2022-12-11T06:35:09.708Z,98694.78
2022-12-11T06:45:11.588Z,98694.19
2022-12-11T06:55:13.527Z,98704.28
2022-12-11T07:05:15.070Z,98705.53
2022-12-11T07:15:16.671Z,98702.25
2022-12-11T07:25:18.124Z,98710.50
2022-12-11T07:35:19.527Z,98726.81
2022-12-11T07:45:20.917Z,98712.78
2022-12-11T07:55:22.343Z,98730.09
2022-12-11T08:05:23.787Z,98712.16
2022-12-11T08:15:29.356Z,98710.28
2022-12-11T08:25:30.730Z,98707.19
2022-12-11T08:35:32.301Z,98708.41
2022-12-11T08:45:33.748Z,98707.19
2022-12-11T08:55:35.181Z,98698.94
2022-12-11T09:05:48.295Z,98699.56
2022-12-11T09:15:49.731Z,98703.28
2022-12-11T09:26:03.064Z,98716.91
2022-12-11T09:36:05.019Z,98715.03
2022-12-11T09:46:16.467Z,98713.78
2022-12-11T09:56:27.498Z,98702.25
2022-12-11T10:06:54.670Z,98699.56
2022-12-11T10:17:20.591Z,98697.69
2022-12-11T10:27:23.800Z,98690.47
2022-12-11T10:37:25.169Z,98678.09
2022-12-11T10:47:26.910Z,98669.00
2022-12-11T10:57:35.567Z,98668.78
2022-12-11T11:07:37.136Z,98653.53
2022-12-11T11:18:14.282Z,98647.72
2022-12-11T11:28:22.584Z,98640.47
2022-12-11T11:38:27.107Z,98643.16
2022-12-11T11:48:48.768Z,98635.97
2022-12-11T11:59:12.820Z,98627.88
2022-12-11T12:09:29.512Z,98619.22
2022-12-11T12:19:49.717Z,98616.94
2022-12-11T12:30:18.770Z,98613.41
2022-12-11T12:40:43.079Z,98614.03
2022-12-11T12:50:47.840Z,98609.28
2022-12-11T13:00:49.254Z,98604.53
2022-12-11T13:10:59.547Z,98593.59
2022-12-11T13:21:01.465Z,98590.72
2022-12-11T13:31:14.889Z,98597.75
2022-12-11T13:41:17.435Z,98588.28
2022-12-11T13:51:21.146Z,98595.13
2022-12-11T14:01:30.548Z,98602.97
2022-12-11T14:11:37.116Z,98615.81
2022-12-11T14:21:38.502Z,98618.47
2022-12-11T14:31:41.751Z,98619.94
2022-12-11T14:41:47.793Z,98632.91
2022-12-11T14:51:49.293Z,98629.78
2022-12-11T15:02:04.368Z,98625.22
2022-12-11T15:12:24.237Z,98632.84
2022-12-11T15:22:26.142Z,98631.75
2022-12-11T15:32:27.606Z,98634.22
2022-12-11T15:42:39.935Z,98636.44
2022-12-11T15:52:41.531Z,98638.66
2022-12-11T16:02:43.143Z,98653.88
2022-12-11T16:12:44.736Z,98657.13
2022-12-11T16:22:46.181Z,98655.00
2022-12-11T16:32:47.671Z,98646.28
2022-12-11T16:42:49.402Z,98649.94
2022-12-11T16:52:51.024Z,98648.25
2022-12-11T17:02:52.655Z,98643.28
2022-12-11T17:12:54.282Z,98645.94
2022-12-11T17:22:56.075Z,98642.56
2022-12-11T17:32:57.487Z,98641.31
2022-12-11T17:42:58.989Z,98633.44
2022-12-11T17:53:00.637Z,98639.94
2022-12-11T18:03:02.168Z,98635.19
2022-12-11T18:13:03.574Z,98637.00
2022-12-11T18:23:05.023Z,98635.09
2022-12-11T18:33:06.568Z,98641.47
2022-12-11T18:43:08.094Z,98641.38
2022-12-11T18:53:09.875Z,98637.19
2022-12-11T19:03:11.931Z,98639.38
2022-12-11T19:13:13.636Z,98640.06
2022-12-11T19:23:15.292Z,98641.59
2022-12-11T19:33:16.717Z,98642.06
2022-12-11T19:43:19.460Z,98646.41
2022-12-11T19:53:20.896Z,98642.53
2022-12-11T20:03:22.482Z,98635.38
2022-12-11T20:13:23.964Z,98641.56
2022-12-11T20:23:25.376Z,98636.06
2022-12-11T20:33:26.877Z,98638.09
2022-12-11T20:43:28.311Z,98626.56
2022-12-11T20:53:29.804Z,98619.13
2022-12-11T21:03:35.381Z,98629.38
2022-12-11T21:13:38.983Z,98625.00
2022-12-11T21:23:40.400Z,98621.25
2022-12-11T21:33:41.915Z,98635.22
2022-12-11T21:44:14.525Z,98640.91
2022-12-11T21:54:06.179Z,98619.25
2022-12-11T22:04:08.258Z,98640.19
2022-12-11T22:14:12.384Z,98650.81
2022-12-11T22:24:14.191Z,98654.88
2022-12-11T22:34:15.568Z,98662.03
2022-12-11T22:44:18.416Z,98676.28
2022-12-11T22:54:19.865Z,98658.47
2022-12-11T23:04:21.338Z,98664.72
2022-12-11T23:14:25.194Z,98673.03
2022-12-11T23:24:26.587Z,98676.41
2022-12-11T23:34:28.116Z,98674.41
2022-12-11T23:44:29.521Z,98677.56
2022-12-11T23:54:31.098Z,98670.59
